sensor_id;sensor_type;location;lat;lon;timestamp;pressure;altitude;pressure_sealevel;temperature;humidity
30302;BME280;17111;52.130;5.028;2023-04-07T00:02:00;101573.09;;;17.71;46.13
30302;BME280;17111;52.130;5.028;2023-04-07T00:04:27;101577.44;;;17.72;46.60
30302;BME280;17111;52.130;5.028;2023-04-07T00:06:54;101578.44;;;17.71;46.27
30302;BME280;17111;52.130;5.028;2023-04-07T00:09:20;101574.91;;;17.70;45.86
30302;BME280;17111;52.130;5.028;2023-04-07T00:11:47;101578.59;;;17.69;45.69
30302;BME280;17111;52.130;5.028;2023-04-07T00:14:14;101581.28;;;17.69;46.27
30302;BME280;17111;52.130;5.028;2023-04-07T00:16:40;101579.53;;;17.68;46.07
30302;BME280;17111;52.130;5.028;2023-04-07T00:19:07;101584.91;;;17.68;46.16
30302;BME280;17111;52.130;5.028;2023-04-07T00:21:33;101584.91;;;17.68;46.23
30302;BME280;17111;52.130;5.028;2023-04-07T00:24:00;101583.22;;;17.67;46.03
30302;BME280;17111;52.130;5.028;2023-04-07T00:26:26;101580.53;;;17.67;45.72
30302;BME280;17111;52.130;5.028;2023-04-07T00:28:57;101581.53;;;17.66;46.29
30302;BME280;17111;52.130;5.028;2023-04-07T00:31:24;101577.00;;;17.67;46.10
30302;BME280;17111;52.130;5.028;2023-04-07T00:33:51;101579.69;;;17.67;45.99
30302;BME280;17111;52.130;5.028;2023-04-07T00:36:18;101575.31;;;17.66;46.01
30302;BME280;17111;52.130;5.028;2023-04-07T00:38:45;101576.31;;;17.65;46.23
30302;BME280;17111;52.130;5.028;2023-04-07T00:41:11;101571.78;;;17.65;46.22
30302;BME280;17111;52.130;5.028;2023-04-07T00:43:38;101574.47;;;17.65;46.25
30302;BME280;17111;52.130;5.028;2023-04-07T00:46:05;101583.47;;;17.64;46.20
30302;BME280;17111;52.130;5.028;2023-04-07T00:48:31;101578.13;;;17.64;46.26
30302;BME280;17111;52.130;5.028;2023-04-07T00:50:58;101578.13;;;17.64;46.31
30302;BME280;17111;52.130;5.028;2023-04-07T00:53:25;101587.16;;;17.63;46.19
30302;BME280;17111;52.130;5.028;2023-04-07T00:55:51;101581.78;;;17.63;45.92
30302;BME280;17111;52.130;5.028;2023-04-07T00:58:18;101576.56;;;17.62;46.00
30302;BME280;17111;52.130;5.028;2023-04-07T01:00:48;101585.47;;;17.62;46.72
30302;BME280;17111;52.130;5.028;2023-04-07T01:03:24;101579.38;;;17.60;46.27
30302;BME280;17111;52.130;5.028;2023-04-07T01:05:58;101582.03;;;17.60;45.98
30302;BME280;17111;52.130;5.028;2023-04-07T01:11:16;101585.72;;;17.59;46.45
30302;BME280;17111;52.130;5.028;2023-04-07T01:13:48;101591.06;;;17.59;45.99
30302;BME280;17111;52.130;5.028;2023-04-07T01:16:37;101590.38;;;17.57;46.00
30302;BME280;17111;52.130;5.028;2023-04-07T01:19:35;101583.28;;;17.56;46.22
30302;BME280;17111;52.130;5.028;2023-04-07T01:22:12;101582.34;;;17.57;46.35
30302;BME280;17111;52.130;5.028;2023-04-07T01:27:42;101585.00;;;17.57;46.04
30302;BME280;17111;52.130;5.028;2023-04-07T01:30:15;101587.69;;;17.57;46.29
30302;BME280;17111;52.130;5.028;2023-04-07T01:32:44;101586.81;;;17.57;46.49
30302;BME280;17111;52.130;5.028;2023-04-07T01:35:13;101588.66;;;17.56;46.75
30302;BME280;17111;52.130;5.028;2023-04-07T01:37:40;101588.66;;;17.56;46.26
30302;BME280;17111;52.130;5.028;2023-04-07T01:40:08;101587.81;;;17.56;46.33
30302;BME280;17111;52.130;5.028;2023-04-07T01:42:36;101587.81;;;17.56;46.30
30302;BME280;17111;52.130;5.028;2023-04-07T01:45:05;101588.81;;;17.55;46.17
30302;BME280;17111;52.130;5.028;2023-04-07T01:47:34;101588.94;;;17.53;46.06
30302;BME280;17111;52.130;5.028;2023-04-07T01:50:03;101588.81;;;17.55;46.41
30302;BME280;17111;52.130;5.028;2023-04-07T01:52:35;101594.31;;;17.53;46.39
30302;BME280;17111;52.130;5.028;2023-04-07T01:55:03;101597.84;;;17.54;46.24
30302;BME280;17111;52.130;5.028;2023-04-07T01:57:30;101596.97;;;17.53;46.33
30302;BME280;17111;52.130;5.028;2023-04-07T01:59:56;101596.97;;;17.53;46.46
30302;BME280;17111;52.130;5.028;2023-04-07T02:02:23;101596.97;;;17.53;46.45
30302;BME280;17111;52.130;5.028;2023-04-07T02:07:26;101595.25;;;17.52;46.28
30302;BME280;17111;52.130;5.028;2023-04-07T02:09:59;101596.25;;;17.51;46.57
30302;BME280;17111;52.130;5.028;2023-04-07T02:12:28;101599.78;;;17.51;46.86
30302;BME280;17111;52.130;5.028;2023-04-07T02:14:56;101597.09;;;17.51;46.47
30302;BME280;17111;52.130;5.028;2023-04-07T02:17:25;101601.63;;;17.51;46.18
30302;BME280;17111;52.130;5.028;2023-04-07T02:19:54;101603.44;;;17.50;46.69
30302;BME280;17111;52.130;5.028;2023-04-07T02:22:23;101606.97;;;17.51;46.06
30302;BME280;17111;52.130;5.028;2023-04-07T02:24:50;101604.44;;;17.49;46.46
30302;BME280;17111;52.130;5.028;2023-04-07T02:27:17;101600.91;;;17.49;47.10
30302;BME280;17111;52.130;5.028;2023-04-07T02:29:45;101602.59;;;17.50;46.01
30302;BME280;17111;52.130;5.028;2023-04-07T02:32:11;101594.66;;;17.48;46.35
30302;BME280;17111;52.130;5.028;2023-04-07T02:34:38;101602.72;;;17.48;46.67
30302;BME280;17111;52.130;5.028;2023-04-07T02:37:04;101589.47;;;17.47;46.24
30302;BME280;17111;52.130;5.028;2023-04-07T02:39:31;101600.19;;;17.47;46.64
30302;BME280;17111;52.130;5.028;2023-04-07T02:41:58;101592.97;;;17.47;46.62
30302;BME280;17111;52.130;5.028;2023-04-07T02:44:24;101590.31;;;17.47;46.61
30302;BME280;17111;52.130;5.028;2023-04-07T02:46:51;101595.66;;;17.47;46.41
30302;BME280;17111;52.130;5.028;2023-04-07T02:49:17;101594.81;;;17.47;46.14
30302;BME280;17111;52.130;5.028;2023-04-07T02:51:44;101601.03;;;17.47;47.05
30302;BME280;17111;52.130;5.028;2023-04-07T02:54:12;101602.00;;;17.46;46.66
30302;BME280;17111;52.130;5.028;2023-04-07T02:56:38;101603.84;;;17.46;46.13
30302;BME280;17111;52.130;5.028;2023-04-07T02:59:05;101608.22;;;17.47;46.56
30302;BME280;17111;52.130;5.028;2023-04-07T03:01:32;101594.97;;;17.45;46.67
30302;BME280;17111;52.130;5.028;2023-04-07T03:04:00;101599.47;;;17.45;46.73
30302;BME280;17111;52.130;5.028;2023-04-07T03:06:27;101605.69;;;17.45;46.50
30302;BME280;17111;52.130;5.028;2023-04-07T03:08:53;101605.69;;;17.45;46.55
30302;BME280;17111;52.130;5.028;2023-04-07T03:11:20;101596.78;;;17.45;46.41
30302;BME280;17111;52.130;5.028;2023-04-07T03:13:47;101600.31;;;17.45;46.79
30302;BME280;17111;52.130;5.028;2023-04-07T03:16:13;101597.75;;;17.44;46.66
30302;BME280;17111;52.130;5.028;2023-04-07T03:18:40;101600.31;;;17.45;46.16
30302;BME280;17111;52.130;5.028;2023-04-07T03:21:06;101601.28;;;17.44;46.46
30302;BME280;17111;52.130;5.028;2023-04-07T03:23:33;101603.13;;;17.44;46.30
30302;BME280;17111;52.130;5.028;2023-04-07T03:26:00;101601.28;;;17.44;46.84
30302;BME280;17111;52.130;5.028;2023-04-07T03:28:26;101600.44;;;17.44;46.83
30302;BME280;17111;52.130;5.028;2023-04-07T03:30:53;101603.13;;;17.44;46.25
30302;BME280;17111;52.130;5.028;2023-04-07T03:33:19;101601.41;;;17.43;46.23
30302;BME280;17111;52.130;5.028;2023-04-07T03:35:46;101596.06;;;17.43;46.74
30302;BME280;17111;52.130;5.028;2023-04-07T03:38:12;101601.41;;;17.43;46.33
30302;BME280;17111;52.130;5.028;2023-04-07T03:40:39;101592.53;;;17.42;46.28
30302;BME280;17111;52.130;5.028;2023-04-07T03:43:06;101603.25;;;17.42;46.32
30302;BME280;17111;52.130;5.028;2023-04-07T03:45:37;101599.72;;;17.42;46.35
30302;BME280;17111;52.130;5.028;2023-04-07T03:48:04;101596.19;;;17.41;46.45
30302;BME280;17111;52.130;5.028;2023-04-07T03:50:31;101601.56;;;17.41;45.79
30302;BME280;17111;52.130;5.028;2023-04-07T03:52:57;101595.34;;;17.41;46.82
30302;BME280;17111;52.130;5.028;2023-04-07T03:55:24;101595.34;;;17.41;46.02
30302;BME280;17111;52.130;5.028;2023-04-07T03:57:51;101600.72;;;17.41;46.38
30302;BME280;17111;52.130;5.028;2023-04-07T04:00:17;101605.19;;;17.40;46.54
30302;BME280;17111;52.130;5.028;2023-04-07T04:02:44;101607.03;;;17.40;46.89
30302;BME280;17111;52.130;5.028;2023-04-07T04:05:11;101613.25;;;17.40;46.59
30302;BME280;17111;52.130;5.028;2023-04-07T04:07:37;101619.59;;;17.39;46.53
30302;BME280;17111;52.130;5.028;2023-04-07T04:10:04;101621.41;;;17.39;46.82
30302;BME280;17111;52.130;5.028;2023-04-07T04:12:31;101620.44;;;17.40;46.27
30302;BME280;17111;52.130;5.028;2023-04-07T04:14:58;101612.41;;;17.40;46.50
30302;BME280;17111;52.130;5.028;2023-04-07T04:17:25;101617.91;;;17.38;46.73
30302;BME280;17111;52.130;5.028;2023-04-07T04:19:52;101618.75;;;17.39;46.57
30302;BME280;17111;52.130;5.028;2023-04-07T04:22:19;101625.94;;;17.38;46.82
30302;BME280;17111;52.130;5.028;2023-04-07T04:24:46;101622.41;;;17.38;46.27
30302;BME280;17111;52.130;5.028;2023-04-07T04:27:12;101629.59;;;17.37;46.58
30302;BME280;17111;52.130;5.028;2023-04-07T04:29:39;101634.13;;;17.37;46.77
30302;BME280;17111;52.130;5.028;2023-04-07T04:32:05;101632.41;;;17.36;46.48
30302;BME280;17111;52.130;5.028;2023-04-07T04:34:32;101638.59;;;17.36;46.90
30302;BME280;17111;52.130;5.028;2023-04-07T04:36:59;101632.41;;;17.36;46.64
30302;BME280;17111;52.130;5.028;2023-04-07T04:39:26;101637.75;;;17.36;46.33
30302;BME280;17111;52.130;5.028;2023-04-07T04:41:53;101635.22;;;17.34;46.87
30302;BME280;17111;52.130;5.028;2023-04-07T04:44:19;101642.25;;;17.35;46.60
30302;BME280;17111;52.130;5.028;2023-04-07T04:46:46;101641.41;;;17.35;47.09
30302;BME280;17111;52.130;5.028;2023-04-07T04:49:12;101635.22;;;17.34;47.12
30302;BME280;17111;52.130;5.028;2023-04-07T04:51:39;101644.09;;;17.35;46.34
30302;BME280;17111;52.130;5.028;2023-04-07T04:54:07;101653.13;;;17.34;46.93
30302;BME280;17111;52.130;5.028;2023-04-07T04:56:33;101650.44;;;17.34;46.70
30302;BME280;17111;52.130;5.028;2023-04-07T04:59:01;101656.66;;;17.34;46.58
30302;BME280;17111;52.130;5.028;2023-04-07T05:01:27;101654.09;;;17.33;46.63
30302;BME280;17111;52.130;5.028;2023-04-07T05:03:56;101652.28;;;17.33;47.04
30302;BME280;17111;52.130;5.028;2023-04-07T05:06:23;101661.16;;;17.34;47.07
30302;BME280;17111;52.130;5.028;2023-04-07T05:08:50;101665.53;;;17.35;46.74
30302;BME280;17111;52.130;5.028;2023-04-07T05:11:16;101656.66;;;17.34;46.98
30302;BME280;17111;52.130;5.028;2023-04-07T05:13:43;101658.47;;;17.34;46.74
30302;BME280;17111;52.130;5.028;2023-04-07T05:16:10;101661.16;;;17.34;46.96
30302;BME280;17111;52.130;5.028;2023-04-07T05:18:36;101662.00;;;17.34;46.80
30302;BME280;17111;52.130;5.028;2023-04-07T05:21:03;101659.34;;;17.34;46.69
30302;BME280;17111;52.130;5.028;2023-04-07T05:23:29;101671.03;;;17.33;46.53
30302;BME280;17111;52.130;5.028;2023-04-07T05:25:56;101661.16;;;17.34;45.99
30302;BME280;17111;52.130;5.028;2023-04-07T05:28:23;101664.84;;;17.33;46.52
30302;BME280;17111;52.130;5.028;2023-04-07T05:30:50;101665.69;;;17.33;46.71
30302;BME280;17111;52.130;5.028;2023-04-07T05:33:17;101671.88;;;17.34;46.55
30302;BME280;17111;52.130;5.028;2023-04-07T05:35:44;101663.09;;;17.32;46.16
30302;BME280;17111;52.130;5.028;2023-04-07T05:38:11;101664.94;;;17.31;46.66
30302;BME280;17111;52.130;5.028;2023-04-07T05:40:39;101673.72;;;17.33;46.28
30302;BME280;17111;52.130;5.028;2023-04-07T05:43:05;101675.56;;;17.33;46.53
30302;BME280;17111;52.130;5.028;2023-04-07T05:45:32;101682.72;;;17.32;47.03
30302;BME280;17111;52.130;5.028;2023-04-07T05:47:58;101680.91;;;17.33;46.50
30302;BME280;17111;52.130;5.028;2023-04-07T05:50:25;101672.88;;;17.33;47.07
30302;BME280;17111;52.130;5.028;2023-04-07T05:52:51;101687.97;;;17.34;46.79
30302;BME280;17111;52.130;5.028;2023-04-07T05:55:18;101685.38;;;17.32;46.16
30302;BME280;17111;52.130;5.028;2023-04-07T05:57:45;101688.94;;;17.33;46.86
30302;BME280;17111;52.130;5.028;2023-04-07T06:00:12;101688.22;;;17.31;46.44
30302;BME280;17111;52.130;5.028;2023-04-07T06:02:38;101691.63;;;17.33;46.48
30302;BME280;17111;52.130;5.028;2023-04-07T06:05:06;101689.91;;;17.32;46.93
30302;BME280;17111;52.130;5.028;2023-04-07T06:07:32;101686.38;;;17.31;46.64
30302;BME280;17111;52.130;5.028;2023-04-07T06:09:59;101695.25;;;17.32;46.90
30302;BME280;17111;52.130;5.028;2023-04-07T06:12:25;101688.06;;;17.32;46.75
30302;BME280;17111;52.130;5.028;2023-04-07T06:14:54;101695.25;;;17.32;46.91
30302;BME280;17111;52.130;5.028;2023-04-07T06:17:21;101696.97;;;17.33;47.07
30302;BME280;17111;52.130;5.028;2023-04-07T06:19:48;101688.94;;;17.33;46.73
30302;BME280;17111;52.130;5.028;2023-04-07T06:22:15;101695.16;;;17.33;46.57
30302;BME280;17111;52.130;5.028;2023-04-07T06:24:41;101701.34;;;17.34;47.04
30302;BME280;17111;52.130;5.028;2023-04-07T06:27:08;101700.50;;;17.33;46.50
30302;BME280;17111;52.130;5.028;2023-04-07T06:29:34;101700.50;;;17.33;46.74
30302;BME280;17111;52.130;5.028;2023-04-07T06:32:01;101698.69;;;17.34;46.17
30302;BME280;17111;52.130;5.028;2023-04-07T06:34:28;101703.19;;;17.33;46.67
30302;BME280;17111;52.130;5.028;2023-04-07T06:36:55;101699.53;;;17.34;46.96
30302;BME280;17111;52.130;5.028;2023-04-07T06:39:25;101704.03;;;17.34;46.68
30302;BME280;17111;52.130;5.028;2023-04-07T06:41:52;101711.09;;;17.35;46.94
30302;BME280;17111;52.130;5.028;2023-04-07T06:44:19;101714.63;;;17.35;46.70
30302;BME280;17111;52.130;5.028;2023-04-07T06:46:45;101711.94;;;17.35;46.74
30302;BME280;17111;52.130;5.028;2023-04-07T06:49:14;101719.97;;;17.35;46.55
30302;BME280;17111;52.130;5.028;2023-04-07T06:51:41;101719.13;;;17.35;46.39
30302;BME280;17111;52.130;5.028;2023-04-07T06:54:08;101719.13;;;17.35;46.61
30302;BME280;17111;52.130;5.028;2023-04-07T06:56:39;101722.66;;;17.35;46.65
30302;BME280;17111;52.130;5.028;2023-04-07T06:59:06;101724.47;;;17.35;46.45
30302;BME280;17111;52.130;5.028;2023-04-07T07:01:33;101729.72;;;17.36;46.86
30302;BME280;17111;52.130;5.028;2023-04-07T07:03:59;101735.19;;;17.35;46.87
30302;BME280;17111;52.130;5.028;2023-04-07T07:06:26;101736.91;;;17.36;46.38
30302;BME280;17111;52.130;5.028;2023-04-07T07:08:53;101740.44;;;17.36;46.46
30302;BME280;17111;52.130;5.028;2023-04-07T07:11:20;101736.78;;;17.37;46.22
30302;BME280;17111;52.130;5.028;2023-04-07T07:13:46;101736.78;;;17.37;46.31
30302;BME280;17111;52.130;5.028;2023-04-07T07:16:13;101749.19;;;17.38;46.59
30302;BME280;17111;52.130;5.028;2023-04-07T07:18:40;101742.00;;;17.39;46.61
30302;BME280;17111;52.130;5.028;2023-04-07T07:21:06;101749.19;;;17.38;46.36
30302;BME280;17111;52.130;5.028;2023-04-07T07:23:33;101750.06;;;17.39;46.35
30302;BME280;17111;52.130;5.028;2023-04-07T07:26:00;101756.25;;;17.39;46.52
30302;BME280;17111;52.130;5.028;2023-04-07T07:28:26;101757.09;;;17.40;46.38
30302;BME280;17111;52.130;5.028;2023-04-07T07:30:55;101759.78;;;17.40;46.47
30302;BME280;17111;52.130;5.028;2023-04-07T07:33:21;101761.50;;;17.41;46.50
30302;BME280;17111;52.130;5.028;2023-04-07T07:35:48;101759.78;;;17.40;45.99
30302;BME280;17111;52.130;5.028;2023-04-07T07:38:14;101766.88;;;17.41;46.40
30302;BME280;17111;52.130;5.028;2023-04-07T07:40:41;101773.19;;;17.40;46.46
30302;BME280;17111;52.130;5.028;2023-04-07T07:43:07;101772.34;;;17.39;46.64
30302;BME280;17111;52.130;5.028;2023-04-07T07:45:34;101771.34;;;17.40;46.35
30302;BME280;17111;52.130;5.028;2023-04-07T07:48:00;101774.03;;;17.40;46.48
30302;BME280;17111;52.130;5.028;2023-04-07T07:50:28;101781.97;;;17.42;46.55
30302;BME280;17111;52.130;5.028;2023-04-07T07:52:55;101787.31;;;17.42;46.39
30302;BME280;17111;52.130;5.028;2023-04-07T07:55:21;101786.34;;;17.43;46.87
30302;BME280;17111;52.130;5.028;2023-04-07T07:57:48;101786.34;;;17.43;46.59
30302;BME280;17111;52.130;5.028;2023-04-07T08:00:14;101784.50;;;17.43;46.41
30302;BME280;17111;52.130;5.028;2023-04-07T08:02:41;101783.66;;;17.43;46.40
30302;BME280;17111;52.130;5.028;2023-04-07T08:05:08;101791.56;;;17.44;46.17
30302;BME280;17111;52.130;5.028;2023-04-07T08:07:35;101791.44;;;17.46;46.63
30302;BME280;17111;52.130;5.028;2023-04-07T08:10:02;101802.88;;;17.48;46.20
30302;BME280;17111;52.130;5.028;2023-04-07T08:12:28;101805.56;;;17.48;46.33
30302;BME280;17111;52.130;5.028;2023-04-07T08:14:55;101799.25;;;17.49;46.60
30302;BME280;17111;52.130;5.028;2023-04-07T08:17:21;101808.00;;;17.51;46.76
30302;BME280;17111;52.130;5.028;2023-04-07T08:19:48;101804.47;;;17.50;45.83
30302;BME280;17111;52.130;5.028;2023-04-07T08:22:14;101797.28;;;17.51;46.38
30302;BME280;17111;52.130;5.028;2023-04-07T08:24:41;101808.84;;;17.51;46.26
30302;BME280;17111;52.130;5.028;2023-04-07T08:27:08;101809.69;;;17.52;46.31
30302;BME280;17111;52.130;5.028;2023-04-07T08:29:34;101814.09;;;17.53;46.12
30302;BME280;17111;52.130;5.028;2023-04-07T08:32:01;101820.16;;;17.55;46.04
30302;BME280;17111;52.130;5.028;2023-04-07T08:34:27;101819.31;;;17.55;46.25
30302;BME280;17111;52.130;5.028;2023-04-07T08:36:54;101819.31;;;17.55;46.68
30302;BME280;17111;52.130;5.028;2023-04-07T08:39:21;101816.50;;;17.56;46.22
30302;BME280;17111;52.130;5.028;2023-04-07T08:41:49;101823.84;;;17.54;46.51
30302;BME280;17111;52.130;5.028;2023-04-07T08:44:16;101817.34;;;17.57;46.19
30302;BME280;17111;52.130;5.028;2023-04-07T08:46:47;101820.91;;;17.57;46.17
30302;BME280;17111;52.130;5.028;2023-04-07T08:49:15;101820.78;;;17.59;46.41
30302;BME280;17111;52.130;5.028;2023-04-07T08:51:46;101827.97;;;17.58;46.02
30302;BME280;17111;52.130;5.028;2023-04-07T08:54:16;101828.94;;;17.57;46.27
30302;BME280;17111;52.130;5.028;2023-04-07T08:56:44;101828.81;;;17.59;45.92
30302;BME280;17111;52.130;5.028;2023-04-07T08:59:13;101834.31;;;17.57;46.21
30302;BME280;17111;52.130;5.028;2023-04-07T09:01:40;101836.00;;;17.58;46.51
30302;BME280;17111;52.130;5.028;2023-04-07T09:04:08;101836.00;;;17.58;46.09
30302;BME280;17111;52.130;5.028;2023-04-07T09:06:36;101829.78;;;17.58;45.89
30302;BME280;17111;52.130;5.028;2023-04-07T09:09:04;101841.38;;;17.58;46.23
30302;BME280;17111;52.130;5.028;2023-04-07T09:11:35;101843.19;;;17.58;45.97
30302;BME280;17111;52.130;5.028;2023-04-07T09:14:02;101841.38;;;17.58;46.19
30302;BME280;17111;52.130;5.028;2023-04-07T09:16:29;101841.38;;;17.58;45.80
30302;BME280;17111;52.130;5.028;2023-04-07T09:18:59;101837.69;;;17.59;46.44
30302;BME280;17111;52.130;5.028;2023-04-07T09:21:26;101836.72;;;17.60;46.15
30302;BME280;17111;52.130;5.028;2023-04-07T09:23:52;101843.91;;;17.60;46.40
30302;BME280;17111;52.130;5.028;2023-04-07T09:26:23;101840.25;;;17.61;46.37
30302;BME280;17111;52.130;5.028;2023-04-07T09:28:54;101845.50;;;17.62;46.17
30302;BME280;17111;52.130;5.028;2023-04-07T09:31:22;101848.19;;;17.62;46.14
30302;BME280;17111;52.130;5.028;2023-04-07T09:33:51;101844.66;;;17.62;46.34
30302;BME280;17111;52.130;5.028;2023-04-07T09:36:18;101850.00;;;17.62;46.41
30302;BME280;17111;52.130;5.028;2023-04-07T09:38:45;101850.00;;;17.62;46.43
30302;BME280;17111;52.130;5.028;2023-04-07T09:41:14;101855.38;;;17.62;46.18
30302;BME280;17111;52.130;5.028;2023-04-07T09:43:43;101850.97;;;17.61;46.38
30302;BME280;17111;52.130;5.028;2023-04-07T09:48:39;101847.31;;;17.62;46.31
30302;BME280;17111;52.130;5.028;2023-04-07T09:53:48;101850.97;;;17.61;46.40
30302;BME280;17111;52.130;5.028;2023-04-07T09:56:20;101853.53;;;17.62;46.52
30302;BME280;17111;52.130;5.028;2023-04-07T09:58:50;101853.53;;;17.62;46.47
30302;BME280;17111;52.130;5.028;2023-04-07T10:01:20;101858.91;;;17.62;46.34
30302;BME280;17111;52.130;5.028;2023-04-07T10:03:47;101855.22;;;17.63;46.33
30302;BME280;17111;52.130;5.028;2023-04-07T10:06:15;101857.91;;;17.63;46.75
30302;BME280;17111;52.130;5.028;2023-04-07T10:08:42;101862.28;;;17.64;46.20
30302;BME280;17111;52.130;5.028;2023-04-07T10:11:09;101864.97;;;17.64;46.51
30302;BME280;17111;52.130;5.028;2023-04-07T10:13:38;101868.53;;;17.65;46.24
30302;BME280;17111;52.130;5.028;2023-04-07T10:16:06;101869.38;;;17.65;46.75
30302;BME280;17111;52.130;5.028;2023-04-07T10:18:35;101859.59;;;17.64;46.18
30302;BME280;17111;52.130;5.028;2023-04-07T10:21:04;101866.81;;;17.64;46.38
30302;BME280;17111;52.130;5.028;2023-04-07T10:23:49;101875.69;;;17.64;46.89
30302;BME280;17111;52.130;5.028;2023-04-07T10:26:20;101875.69;;;17.64;46.58
30302;BME280;17111;52.130;5.028;2023-04-07T10:28:50;101881.06;;;17.64;46.56
30302;BME280;17111;52.130;5.028;2023-04-07T10:31:19;101877.41;;;17.65;46.53
30302;BME280;17111;52.130;5.028;2023-04-07T10:33:48;101880.94;;;17.66;46.08
30302;BME280;17111;52.130;5.028;2023-04-07T10:36:20;101876.56;;;17.65;46.69
30302;BME280;17111;52.130;5.028;2023-04-07T10:41:40;101888.00;;;17.67;46.74
30302;BME280;17111;52.130;5.028;2023-04-07T10:44:08;101889.72;;;17.68;46.60
30302;BME280;17111;52.130;5.028;2023-04-07T10:49:11;101888.63;;;17.70;46.29
30302;BME280;17111;52.130;5.028;2023-04-07T10:51:39;101893.00;;;17.71;46.66
30302;BME280;17111;52.130;5.028;2023-04-07T10:54:22;101883.13;;;17.72;46.50
30302;BME280;17111;52.130;5.028;2023-04-07T10:59:29;101891.06;;;17.73;45.88
30302;BME280;17111;52.130;5.028;2023-04-07T11:04:39;101892.78;;;17.74;46.21
30302;BME280;17111;52.130;5.028;2023-04-07T11:07:06;101894.59;;;17.74;46.35
30302;BME280;17111;52.130;5.028;2023-04-07T11:09:32;101902.63;;;17.74;46.77
30302;BME280;17111;52.130;5.028;2023-04-07T11:11:59;101900.94;;;17.73;45.85
30302;BME280;17111;52.130;5.028;2023-04-07T11:14:27;101902.63;;;17.74;46.41
30302;BME280;17111;52.130;5.028;2023-04-07T11:16:54;101906.19;;;17.74;46.33
30302;BME280;17111;52.130;5.028;2023-04-07T11:19:21;101903.13;;;17.79;46.48
30302;BME280;17111;52.130;5.028;2023-04-07T11:21:48;101902.50;;;17.87;46.30
30302;BME280;17111;52.130;5.028;2023-04-07T11:24:36;101904.28;;;17.97;46.59
30302;BME280;17111;52.130;5.028;2023-04-07T11:27:11;101905.34;;;18.06;46.07
30302;BME280;17111;52.130;5.028;2023-04-07T11:29:38;101905.69;;;18.13;45.80
30302;BME280;17111;52.130;5.028;2023-04-07T11:32:05;101903.47;;;18.18;45.77
30302;BME280;17111;52.130;5.028;2023-04-07T11:34:33;101907.59;;;18.22;45.81
30302;BME280;17111;52.130;5.028;2023-04-07T11:37:25;101911.16;;;18.22;45.71
30302;BME280;17111;52.130;5.028;2023-04-07T11:39:53;101906.75;;;18.21;45.27
30302;BME280;17111;52.130;5.028;2023-04-07T11:42:33;101917.00;;;18.16;45.61
30302;BME280;17111;52.130;5.028;2023-04-07T11:45:00;101919.97;;;18.13;45.76
30302;BME280;17111;52.130;5.028;2023-04-07T11:47:39;101912.28;;;18.09;45.56
30302;BME280;17111;52.130;5.028;2023-04-07T11:50:06;101914.13;;;18.08;45.65
30302;BME280;17111;52.130;5.028;2023-04-07T11:52:46;101917.06;;;18.05;45.98
30302;BME280;17111;52.130;5.028;2023-04-07T11:55:21;101920.72;;;18.04;45.82
30302;BME280;17111;52.130;5.028;2023-04-07T11:57:50;101920.72;;;18.04;45.75
30302;BME280;17111;52.130;5.028;2023-04-07T12:00:18;101918.03;;;18.04;45.74
30302;BME280;17111;52.130;5.028;2023-04-07T12:02:45;101921.69;;;18.03;45.67
30302;BME280;17111;52.130;5.028;2023-04-07T12:05:12;101923.53;;;18.03;45.54
30302;BME280;17111;52.130;5.028;2023-04-07T12:07:39;101932.44;;;18.03;45.96
30302;BME280;17111;52.130;5.028;2023-04-07T12:10:20;101930.59;;;18.04;45.80
30302;BME280;17111;52.130;5.028;2023-04-07T12:12:47;101933.28;;;18.04;45.94
30302;BME280;17111;52.130;5.028;2023-04-07T12:15:14;101939.63;;;18.03;45.56
30302;BME280;17111;52.130;5.028;2023-04-07T12:17:47;101942.56;;;17.99;45.84
30302;BME280;17111;52.130;5.028;2023-04-07T12:20:14;101943.41;;;18.00;45.79
30302;BME280;17111;52.130;5.028;2023-04-07T12:22:41;101948.06;;;17.98;46.25
30302;BME280;17111;52.130;5.028;2023-04-07T12:25:07;101944.53;;;17.97;45.89
30302;BME280;17111;52.130;5.028;2023-04-07T12:27:34;101942.09;;;17.94;45.72
30302;BME280;17111;52.130;5.028;2023-04-07T12:30:09;101951.13;;;17.93;46.15
30302;BME280;17111;52.130;5.028;2023-04-07T12:32:36;101957.44;;;17.92;46.28
30302;BME280;17111;52.130;5.028;2023-04-07T12:35:04;101951.22;;;17.92;46.12
30302;BME280;17111;52.130;5.028;2023-04-07T12:37:31;101955.88;;;17.90;46.00
30302;BME280;17111;52.130;5.028;2023-04-07T12:39:58;101956.00;;;17.88;46.02
30302;BME280;17111;52.130;5.028;2023-04-07T12:42:25;101965.03;;;17.87;46.33
30302;BME280;17111;52.130;5.028;2023-04-07T12:44:52;101962.47;;;17.86;46.34
30302;BME280;17111;52.130;5.028;2023-04-07T12:47:19;101966.25;;;17.83;46.12
30302;BME280;17111;52.130;5.028;2023-04-07T12:49:46;101970.78;;;17.83;46.16
30302;BME280;17111;52.130;5.028;2023-04-07T12:52:15;101971.75;;;17.82;45.97
30302;BME280;17111;52.130;5.028;2023-04-07T12:54:42;101971.00;;;17.80;46.20
30302;BME280;17111;52.130;5.028;2023-04-07T12:57:09;101977.34;;;17.79;46.13
30302;BME280;17111;52.130;5.028;2023-04-07T12:59:36;101978.34;;;17.78;46.42
30302;BME280;17111;52.130;5.028;2023-04-07T13:02:03;101986.50;;;17.76;46.60
30302;BME280;17111;52.130;5.028;2023-04-07T13:04:30;101977.59;;;17.75;46.43
30302;BME280;17111;52.130;5.028;2023-04-07T13:06:57;101985.66;;;17.75;46.27
30302;BME280;17111;52.130;5.028;2023-04-07T13:09:24;101985.75;;;17.74;46.47
30302;BME280;17111;52.130;5.028;2023-04-07T13:11:51;101987.59;;;17.73;46.09
30302;BME280;17111;52.130;5.028;2023-04-07T13:14:18;101993.03;;;17.72;46.50
30302;BME280;17111;52.130;5.028;2023-04-07T13:16:44;101985.00;;;17.72;46.61
30302;BME280;17111;52.130;5.028;2023-04-07T13:19:11;101994.78;;;17.73;46.47